Time;durP1;ratioP1;P1;durP2;ratioP2;P2;SDS_P1;SDS_P2;PMS_P1;PMS_P2;Temp;Humidity;BMP_temperature;BMP_pressure;BME280_temperature;BME280_humidity;BME280_pressure;Samples;Min_cycle;Max_cycle;Signal;HPM_P1;HPM_P2
2023/03/16 00:00:46;;;;;;;13.48;9.88;;;;;;;-3.70;64.83;100726.41;4972443;28;20042;-75
2023/03/16 00:03:17;;;;;;;16.58;10.00;;;;;;;-3.67;64.67;100731.63;4941293;28;20517;-75
2023/03/16 00:05:48;;;;;;;20.92;10.50;;;;;;;-3.67;64.74;100715.09;4975968;28;20047;-76
2023/03/16 00:08:15;;;;;;;18.33;10.20;;;;;;;-3.69;64.90;100712.44;4977410;28;20043;-77
2023/03/16 00:10:45;;;;;;;21.58;10.35;;;;;;;-3.58;64.56;100722.91;4975838;28;20034;-75
2023/03/16 00:13:19;;;;;;;18.30;10.13;;;;;;;-3.55;64.82;100715.06;4976031;28;20372;-75
2023/03/16 00:15:57;;;;;;;22.40;9.32;;;;;;;-3.53;64.29;100715.94;4977540;28;20494;-76
2023/03/16 00:18:26;;;;;;;16.23;8.20;;;;;;;-3.59;64.81;100709.84;4960360;28;20050;-75
2023/03/16 00:21:14;;;;;;;11.70;7.78;;;;;;;-3.55;64.58;100716.81;4976786;28;20047;-75
2023/03/16 00:23:41;;;;;;;10.63;7.50;;;;;;;-3.56;64.28;100722.91;4974664;28;20039;-75
2023/03/16 00:26:08;;;;;;;10.40;6.72;;;;;;;-3.61;64.61;100720.31;4959339;28;20141;-76
2023/03/16 00:28:35;;;;;;;8.55;6.65;;;;;;;-3.62;64.41;100717.69;4976788;28;20038;-75
2023/03/16 00:31:06;;;;;;;9.18;6.75;;;;;;;-3.61;64.46;100724.66;4959314;28;20051;-75
2023/03/16 00:33:36;;;;;;;9.20;6.43;;;;;;;-3.63;64.28;100714.22;4975249;28;20046;-75
2023/03/16 00:36:08;;;;;;;7.18;5.88;;;;;;;-3.57;64.08;100711.59;4975418;28;20457;-76
2023/03/16 00:38:38;;;;;;;;;;;;;;;-3.55;64.07;100715.06;4943617;28;20043;-75
2023/03/16 00:41:07;;;;;;;7.50;6.00;;;;;;;-3.53;64.08;100713.34;4976380;28;19918;-76
2023/03/16 00:43:39;;;;;;;7.47;5.97;;;;;;;-3.51;64.03;100705.47;4959357;28;20051;-76
2023/03/16 00:46:13;;;;;;;8.30;6.10;;;;;;;-3.48;63.92;100715.94;4943365;28;20034;-76
2023/03/16 00:48:41;;;;;;;7.55;6.15;;;;;;;-3.43;63.75;100719.41;4975147;28;20138;-75
2023/03/16 00:51:16;;;;;;;6.63;5.85;;;;;;;-3.43;63.94;100708.94;4958868;28;20050;-75
2023/03/16 00:53:44;;;;;;;8.15;6.25;;;;;;;-3.50;63.67;100709.81;4975323;28;20047;-75
2023/03/16 00:56:11;;;;;;;8.35;6.20;;;;;;;-3.54;63.35;100721.16;4976183;28;20043;-76
2023/03/16 00:58:41;;;;;;;9.38;6.47;;;;;;;-3.58;63.77;100716.81;4958728;28;20039;-75
2023/03/16 01:01:13;;;;;;;11.55;6.95;;;;;;;-3.61;63.52;100714.19;4974988;28;20046;-75
2023/03/16 01:03:39;;;;;;;;;;;;;;;-3.60;63.42;100726.41;4959042;28;20572;-75
2023/03/16 01:06:09;;;;;;;12.52;6.00;;;;;;;-3.67;63.65;100726.41;4974876;28;19941;-76
2023/03/16 01:08:36;;;;;;;9.88;7.40;;;;;;;-3.67;63.69;100733.38;4974905;28;20051;-76
2023/03/16 01:11:06;;;;;;;8.93;7.20;;;;;;;-3.66;64.05;100728.13;4975326;28;20134;-75
2023/03/16 01:13:32;;;;;;;16.23;6.93;;;;;;;-3.69;63.63;100733.34;4974481;28;20137;-75
2023/03/16 01:15:59;;;;;;;10.80;7.53;;;;;;;-3.71;63.96;100724.66;4975077;28;20047;-75
2023/03/16 01:18:26;;;;;;;11.32;7.57;;;;;;;-3.66;63.89;100722.91;4942515;28;20057;-75
2023/03/16 01:20:52;;;;;;;12.75;7.50;;;;;;;-3.58;63.75;100719.44;4974324;28;20078;-76
2023/03/16 01:23:18;;;;;;;9.00;7.30;;;;;;;-3.64;63.76;100714.22;4975790;28;20055;-76
2023/03/16 01:25:51;;;;;;;11.85;8.35;;;;;;;-3.54;63.72;100714.19;4942425;28;20509;-76
2023/03/16 01:28:23;;;;;;;9.18;7.43;;;;;;;-3.47;63.82;100702.84;4958114;28;20533;-76
2023/03/16 01:30:56;;;;;;;10.70;7.90;;;;;;;-3.41;63.60;100704.59;4958171;28;20505;-76
2023/03/16 01:33:24;;;;;;;11.80;8.05;;;;;;;-3.45;63.63;100715.94;4941630;28;20093;-77
2023/03/16 01:36:00;;;;;;;21.30;9.32;;;;;;;-3.47;63.57;100702.00;4974222;28;20490;-76
2023/03/16 01:38:30;;;;;;;11.15;8.82;;;;;;;-3.45;63.50;100710.72;4959008;28;20145;-75
2023/03/16 01:40:56;;;;;;;14.40;8.13;;;;;;;-3.54;63.61;100711.56;4957840;28;20047;-75
2023/03/16 01:43:25;;;;;;;10.95;9.00;;;;;;;-3.48;63.77;100710.72;4957969;28;20085;-76
2023/03/16 01:46:03;;;;;;;14.20;8.93;;;;;;;-3.57;63.90;100721.16;4942872;28;20035;-78
2023/03/16 01:48:41;;;;;;;14.32;9.70;;;;;;;-3.57;63.90;100729.00;4973998;28;20050;-77
2023/03/16 01:51:14;;;;;;;18.48;8.82;;;;;;;-3.60;63.85;100726.41;4941932;28;20517;-76
2023/03/16 01:53:44;;;;;;;12.90;8.85;;;;;;;-3.56;64.02;100734.25;4941848;28;20046;-77
2023/03/16 01:56:13;;;;;;;16.67;9.05;;;;;;;-3.58;63.64;100735.09;4973838;28;20131;-75
2023/03/16 01:58:42;;;;;;;14.88;8.32;;;;;;;-3.51;63.78;100723.78;4957666;28;20042;-75
2023/03/16 02:01:10;;;;;;;15.20;9.70;;;;;;;-3.46;63.50;100729.88;4957727;28;20046;-75
2023/03/16 02:03:36;;;;;;;14.40;9.00;;;;;;;-3.44;63.79;100734.22;4957513;28;20039;-75
2023/03/16 02:06:19;;;;;;;19.67;9.85;;;;;;;-3.40;63.44;100729.00;4959507;28;20047;-75
2023/03/16 02:08:54;;;;;;;15.38;9.35;;;;;;;-3.41;63.49;100728.13;4958424;28;20258;-77
2023/03/16 02:11:21;;;;;;;11.65;8.80;;;;;;;-3.28;63.36;100736.81;4957542;28;20038;-77
2023/03/16 02:14:04;;;;;;;;;;;;;;;-3.30;63.09;100752.53;4959439;28;20129;-76
2023/03/16 02:16:30;;;;;;;13.88;8.88;;;;;;;-3.34;63.33;100745.56;4957372;28;20012;-76
2023/03/16 02:18:56;;;;;;;10.73;8.00;;;;;;;-3.26;63.33;100750.78;4957564;28;20050;-76
2023/03/16 02:21:43;;;;;;;13.82;7.93;;;;;;;-3.23;63.32;100746.41;4972882;28;20142;-76
2023/03/16 02:24:09;;;;;;;9.77;7.35;;;;;;;-3.25;62.33;100737.69;4953600;29;20079;-76
2023/03/16 02:26:46;;;;;;;14.27;7.60;;;;;;;-3.22;62.53;100748.16;4953976;28;20050;-76
2023/03/16 02:29:38;;;;;;;12.50;7.05;;;;;;;-3.17;62.92;100749.00;4954481;29;20047;-76
2023/03/16 02:32:04;;;;;;;8.00;5.88;;;;;;;-3.20;62.70;100741.19;4937829;29;20109;-77
2023/03/16 02:34:31;;;;;;;7.63;5.75;;;;;;;-3.19;62.54;100742.94;4937732;29;20051;-75
2023/03/16 02:36:58;;;;;;;6.78;5.35;;;;;;;-3.13;62.28;100733.31;4953548;29;20495;-77
2023/03/16 02:39:26;;;;;;;6.93;5.28;;;;;;;-3.08;62.00;100748.13;4938116;29;20074;-76
2023/03/16 02:41:51;;;;;;;12.00;6.22;;;;;;;-3.07;61.96;100747.25;4937526;29;20074;-76
2023/03/16 02:44:24;;;;;;;8.05;5.70;;;;;;;-3.11;61.83;100745.53;4953797;29;20055;-77
2023/03/16 02:46:54;;;;;;;8.35;5.43;;;;;;;-3.06;62.03;100745.50;4953677;29;20110;-76
2023/03/16 02:49:23;;;;;;;8.57;5.47;;;;;;;-3.05;61.64;100749.84;4953551;29;20050;-76
2023/03/16 02:51:50;;;;;;;9.02;5.55;;;;;;;-3.03;61.73;100742.88;4922116;29;20138;-76
2023/03/16 02:54:17;;;;;;;6.60;5.65;;;;;;;-2.92;61.49;100751.59;4953587;29;20095;-76
2023/03/16 02:56:42;;;;;;;7.57;5.70;;;;;;;-2.89;61.42;100743.72;4954680;29;20051;-74
2023/03/16 02:59:11;;;;;;;6.50;5.38;;;;;;;-2.85;61.44;100755.94;4953771;29;20047;-76
2023/03/16 03:01:37;;;;;;;6.47;5.20;;;;;;;-2.86;61.27;100742.84;4938356;29;20051;-77
2023/03/16 03:04:04;;;;;;;7.82;5.00;;;;;;;-2.84;60.80;100752.44;4954529;29;20138;-80
2023/03/16 03:06:32;;;;;;;7.68;5.35;;;;;;;-2.77;60.86;100762.00;4922510;29;20043;-75
2023/03/16 03:08:58;;;;;;;6.40;4.28;;;;;;;-2.73;60.75;100762.88;4955235;28;20047;-77
2023/03/16 03:11:25;;;;;;;5.50;4.35;;;;;;;-2.70;60.88;100770.72;4953557;29;20624;-77
2023/03/16 03:13:50;;;;;;;7.70;4.30;;;;;;;-2.65;60.21;100783.78;4953646;29;20050;-75
2023/03/16 03:16:20;;;;;;;;;;;;;;;-2.71;60.51;100787.28;4965681;28;20054;-76
2023/03/16 03:18:47;;;;;;;6.00;4.25;;;;;;;-2.72;60.89;100791.63;4964226;28;20018;-76
2023/03/16 03:21:13;;;;;;;5.00;4.50;;;;;;;-2.70;60.47;100792.53;4972352;28;20537;-75
2023/03/16 03:23:39;;;;;;;4.97;4.38;;;;;;;-2.70;60.72;100784.66;4963247;28;20038;-77
2023/03/16 03:26:07;;;;;;;9.25;4.40;;;;;;;-2.69;60.41;100794.25;4973115;28;20051;-76
2023/03/16 03:28:33;;;;;;;7.82;4.57;;;;;;;-2.65;60.49;100791.63;4956770;28;20112;-78
2023/03/16 03:31:00;;;;;;;7.53;4.72;;;;;;;-2.62;60.39;100794.25;4972742;28;20410;-76
2023/03/16 03:33:27;;;;;;;6.97;5.03;;;;;;;-2.62;60.38;100804.72;4956302;28;20186;-77
2023/03/16 03:35:56;;;;;;;6.32;5.18;;;;;;;-2.53;60.33;100799.44;4940924;28;20099;-77
2023/03/16 03:38:23;;;;;;;10.70;6.93;;;;;;;-2.45;60.07;100793.28;4957881;28;20038;-77
2023/03/16 03:40:50;;;;;;;10.43;6.72;;;;;;;-2.46;60.16;100790.69;4976233;28;20584;-79
2023/03/16 03:43:16;;;;;;;10.82;5.63;;;;;;;-2.40;60.24;100800.28;4976188;28;20046;-77
2023/03/16 03:45:44;;;;;;;9.73;6.05;;;;;;;-2.39;60.19;100799.41;4976167;28;20517;-78
2023/03/16 03:48:11;;;;;;;7.22;5.38;;;;;;;-2.38;60.22;100788.03;4975740;28;20046;-77
2023/03/16 03:50:38;;;;;;;10.77;5.82;;;;;;;-2.33;60.37;100797.63;4959803;28;20097;-75
2023/03/16 03:53:33;;;;;;;8.75;5.43;;;;;;;-2.21;60.19;100787.09;4972075;28;20058;-77
2023/03/16 03:56:09;;;;;;;11.57;5.70;;;;;;;-2.05;60.01;100792.25;4976164;28;20490;-78
2023/03/16 03:58:36;;;;;;;11.75;5.70;;;;;;;-2.02;59.57;100800.09;4975442;28;20042;-77
2023/03/16 04:01:02;;;;;;;10.05;5.72;;;;;;;-1.94;59.78;100795.69;4977393;28;20053;-78
2023/03/16 04:03:30;;;;;;;21.75;5.90;;;;;;;-1.92;59.45;100790.44;4968816;28;20034;-77
2023/03/16 04:05:56;;;;;;;13.93;5.78;;;;;;;-1.76;59.09;100800.81;4927851;28;20035;-78
2023/03/16 04:08:22;;;;;;;17.25;7.35;;;;;;;-1.76;59.04;100807.81;4959843;28;20190;-80
2023/03/16 04:10:48;;;;;;;15.00;5.53;;;;;;;-1.60;58.63;100793.72;4960075;28;20050;-78
2023/03/16 04:13:14;;;;;;;9.50;6.00;;;;;;;-1.39;58.52;100807.53;4976461;28;20042;-78
2023/03/16 04:15:40;;;;;;;20.95;7.18;;;;;;;-1.19;58.17;100804.78;4976080;28;20049;-77
2023/03/16 04:18:12;;;;;;;11.38;5.72;;;;;;;-0.92;57.81;100796.63;4975764;28;20046;-76
2023/03/16 04:20:39;;;;;;;13.93;6.07;;;;;;;-0.67;57.53;100796.41;4980960;28;20077;-77
2023/03/16 04:23:06;;;;;;;10.13;5.68;;;;;;;-0.42;56.98;100803.09;4993443;28;20552;-78
2023/03/16 04:25:37;;;;;;;18.42;5.78;;;;;;;-0.31;56.63;100793.31;4978664;28;20045;-78
2023/03/16 04:28:03;;;;;;;8.77;6.00;;;;;;;-0.14;56.30;100802.78;5011397;28;20050;-76
2023/03/16 04:30:33;;;;;;;12.13;6.45;;;;;;;-0.06;56.02;100800.91;4994459;28;20128;-78
2023/03/16 04:33:22;;;;;;;13.20;7.00;;;;;;;0.07;55.94;100791.94;4981303;28;20050;-77
2023/03/16 04:35:49;;;;;;;8.98;6.43;;;;;;;0.28;55.59;100800.44;4995183;28;20140;-76
2023/03/16 04:38:16;;;;;;;7.97;6.63;;;;;;;0.29;54.76;100802.16;4978838;28;20501;-78
2023/03/16 04:40:52;;;;;;;8.82;5.95;;;;;;;0.31;55.49;100798.63;4995879;28;20113;-79
2023/03/16 04:43:22;;;;;;;;;;;;;;;0.48;54.85;100799.22;4995539;28;20497;-78
2023/03/16 04:45:50;;;;;;;10.13;6.78;;;;;;;0.89;55.10;100804.72;4944942;28;19925;-79
2023/03/16 04:48:17;;;;;;;20.65;7.80;;;;;;;1.19;53.69;100804.19;4965652;28;20049;-78
2023/03/16 04:50:44;;;;;;;17.33;7.03;;;;;;;1.55;52.84;100801.75;4974228;28;20125;-78
2023/03/16 04:53:10;;;;;;;13.18;7.22;;;;;;;1.86;52.64;100795.84;4982352;28;20038;-76
2023/03/16 04:55:36;;;;;;;17.50;7.57;;;;;;;2.13;51.76;100800.53;4959054;28;20042;-76
2023/03/16 04:58:02;;;;;;;22.55;7.38;;;;;;;2.32;51.07;100789.56;4980251;28;20556;-76
2023/03/16 05:00:32;;;;;;;9.63;7.10;;;;;;;2.51;50.69;100803.19;4978167;28;20097;-76
2023/03/16 05:03:18;;;;;;;9.02;7.13;;;;;;;2.61;50.33;100797.66;4968639;28;20058;-79
2023/03/16 05:05:45;;;;;;;11.00;7.03;;;;;;;2.61;50.05;100791.53;4958798;28;20475;-77
2023/03/16 05:08:12;;;;;;;17.90;7.85;;;;;;;2.54;49.78;100790.78;4974640;28;20528;-77
2023/03/16 05:10:41;;;;;;;13.00;8.07;;;;;;;2.57;49.79;100782.81;4974640;28;20053;-78
2023/03/16 05:13:07;;;;;;;14.35;7.93;;;;;;;2.66;49.80;100782.56;4992296;28;20502;-78
2023/03/16 05:15:33;;;;;;;15.77;8.13;;;;;;;2.71;49.57;100793.03;5010148;28;20099;-77
2023/03/16 05:18:10;;;;;;;15.07;8.05;;;;;;;2.81;49.43;100798.94;4978039;28;20258;-77
2023/03/16 05:20:36;;;;;;;15.93;7.95;;;;;;;2.62;49.52;100798.53;4994249;28;20052;-77
2023/03/16 05:23:03;;;;;;;17.70;8.43;;;;;;;2.55;49.89;100808.34;4977411;28;20097;-77
2023/03/16 05:25:34;;;;;;;13.70;7.50;;;;;;;2.67;49.79;100808.09;4993801;28;20082;-78
2023/03/16 05:28:04;;;;;;;14.98;6.75;;;;;;;2.91;49.54;100801.31;4993880;28;20061;-77
2023/03/16 05:30:39;;;;;;;13.25;7.30;;;;;;;3.05;49.00;100802.75;4978794;28;20157;-78
2023/03/16 05:33:08;;;;;;;10.63;7.03;;;;;;;3.09;48.90;100804.41;4993632;28;20050;-77
2023/03/16 05:35:34;;;;;;;13.27;7.28;;;;;;;2.98;49.12;100812.59;4993581;28;20069;-78
2023/03/16 05:38:04;;;;;;;23.13;7.72;;;;;;;2.89;48.58;100812.81;4977286;28;20183;-77
2023/03/16 05:40:33;;;;;;;11.73;6.82;;;;;;;3.20;49.30;100804.09;4994484;28;20058;-76
2023/03/16 05:43:09;;;;;;;13.38;6.72;;;;;;;3.57;48.58;100807.50;4977618;28;20053;-77
2023/03/16 05:45:41;;;;;;;13.60;7.50;;;;;;;3.86;47.58;100797.88;4993714;28;20457;-77
2023/03/16 05:48:11;;;;;;;15.25;7.00;;;;;;;4.04;47.15;100807.91;4993218;28;20564;-77
2023/03/16 05:50:43;;;;;;;14.25;6.72;;;;;;;4.21;46.92;100794.16;4993589;28;20048;-76
2023/03/16 05:53:10;;;;;;;25.90;7.03;;;;;;;4.22;46.61;100773.88;4992701;28;20130;-77
2023/03/16 05:55:37;;;;;;;13.95;6.50;;;;;;;4.40;45.96;100778.59;4993463;28;20169;-78
2023/03/16 05:58:06;;;;;;;13.77;7.43;;;;;;;4.55;45.05;100767.50;4993208;28;20050;-77
2023/03/16 06:00:34;;;;;;;18.58;8.85;;;;;;;4.58;45.37;100764.72;4992717;28;20057;-77
2023/03/16 06:03:14;;;;;;;14.88;8.07;;;;;;;4.71;44.66;100764.34;4993207;28;20529;-76
2023/03/16 06:05:40;;;;;;;16.58;7.78;;;;;;;4.60;44.94;100757.63;4993039;28;20042;-76
2023/03/16 06:08:08;;;;;;;10.95;6.70;;;;;;;4.65;45.48;100761.91;5009340;28;20536;-76
2023/03/16 06:10:35;;;;;;;15.75;6.90;;;;;;;4.76;45.28;100765.06;4976567;28;20445;-76
2023/03/16 06:13:01;;;;;;;11.32;5.90;;;;;;;4.92;45.21;100760.97;4993157;28;20047;-77
2023/03/16 06:15:29;;;;;;;6.55;4.97;;;;;;;4.98;44.69;100758.13;4994241;28;20130;-77
2023/03/16 06:17:57;;;;;;;9.10;4.72;;;;;;;5.02;43.44;100761.53;4976420;28;20041;-78
2023/03/16 06:20:22;;;;;;;13.00;4.55;;;;;;;4.99;42.85;100762.50;4976400;28;20391;-76
2023/03/16 06:22:49;;;;;;;11.90;4.80;;;;;;;5.14;43.08;100760.22;4992537;28;20050;-76
2023/03/16 06:25:16;;;;;;;8.85;4.80;;;;;;;5.17;42.65;100761.00;4992688;28;20382;-78
2023/03/16 06:27:43;;;;;;;14.38;5.45;;;;;;;5.22;43.03;100758.16;4992607;28;20042;-77
2023/03/16 06:30:14;;;;;;;20.17;8.50;;;;;;;5.28;43.17;100757.97;4976896;28;20042;-78
2023/03/16 06:32:41;;;;;;;9.48;5.30;;;;;;;5.50;42.92;100760.72;5008796;28;20045;-77
2023/03/16 06:35:08;;;;;;;8.68;5.28;;;;;;;5.62;41.99;100757.59;4992354;28;20042;-78
2023/03/16 06:37:37;;;;;;;9.38;5.38;;;;;;;5.87;41.98;100746.06;4976282;28;20042;-78
2023/03/16 06:40:16;;;;;;;8.88;5.20;;;;;;;6.17;42.56;100742.25;4992250;28;20485;-77
2023/03/16 06:42:42;;;;;;;12.60;4.88;;;;;;;6.49;41.81;100751.59;4993603;28;20042;-76
2023/03/16 06:45:11;;;;;;;12.70;5.32;;;;;;;6.38;41.36;100756.47;4960226;28;20050;-78
2023/03/16 06:47:38;;;;;;;8.90;4.35;;;;;;;6.65;41.06;100750.94;4976267;28;20077;-78
2023/03/16 06:50:04;;;;;;;10.02;5.10;;;;;;;6.93;40.71;100751.53;4992002;28;20046;-77
2023/03/16 06:52:30;;;;;;;8.82;3.85;;;;;;;7.03;40.02;100747.56;4992130;28;20052;-77
2023/03/16 06:54:57;;;;;;;8.65;4.60;;;;;;;7.00;40.04;100742.38;4992112;28;20520;-77
2023/03/16 06:57:24;;;;;;;11.20;5.03;;;;;;;7.13;40.09;100739.19;4976213;28;20381;-76
2023/03/16 06:59:50;;;;;;;8.68;5.05;;;;;;;7.47;39.66;100738.53;4991921;28;20046;-77
2023/03/16 07:02:16;;;;;;;13.20;5.10;;;;;;;7.86;38.95;100727.88;4991868;28;20053;-76
2023/03/16 07:04:42;;;;;;;7.53;5.18;;;;;;;8.11;38.49;100737.38;4992004;28;20042;-77
2023/03/16 07:07:09;;;;;;;13.10;5.38;;;;;;;8.14;38.26;100727.44;4992072;28;20042;-78
2023/03/16 07:09:35;;;;;;;22.23;5.05;;;;;;;8.13;38.31;100722.19;4992138;28;20410;-77
2023/03/16 07:12:00;;;;;;;9.40;5.60;;;;;;;8.21;37.70;100725.34;4975996;28;20073;-78
2023/03/16 07:14:26;;;;;;;10.13;4.97;;;;;;;8.18;37.32;100728.16;4979099;28;20129;-77
2023/03/16 07:16:54;;;;;;;9.77;5.10;;;;;;;8.01;37.76;100731.59;4963982;28;20482;-76
2023/03/16 07:19:21;;;;;;;15.52;4.88;;;;;;;7.60;37.72;100725.53;5012491;28;20046;-77
2023/03/16 07:21:48;;;;;;;17.55;5.32;;;;;;;7.51;38.84;100721.50;4979902;28;20093;-78
2023/03/16 07:24:19;;;;;;;8.50;5.00;;;;;;;7.44;38.28;100726.25;4996033;28;20055;-77
2023/03/16 07:26:45;;;;;;;22.58;6.40;;;;;;;7.37;39.12;100730.13;4995810;28;20043;-78
2023/03/16 07:29:17;;;;;;;8.27;5.68;;;;;;;7.37;39.37;100724.81;4979716;28;20378;-78
2023/03/16 07:31:44;;;;;;;11.82;5.68;;;;;;;7.38;39.47;100718.56;4979422;28;20630;-78
2023/03/16 07:34:15;;;;;;;14.38;7.00;;;;;;;7.29;39.32;100710.97;4995737;28;20124;-78
2023/03/16 07:36:48;;;;;;;13.32;7.05;;;;;;;7.33;39.59;100717.88;4995736;28;20069;-79
2023/03/16 07:39:16;;;;;;;17.83;6.83;;;;;;;7.39;39.30;100717.59;4979320;28;20073;-77
2023/03/16 07:41:42;;;;;;;14.57;7.65;;;;;;;7.61;39.38;100711.31;4995324;28;20046;-77
2023/03/16 07:44:17;;;;;;;14.60;7.20;;;;;;;7.25;39.67;100710.22;4995444;28;20510;-78
2023/03/16 07:46:47;;;;;;;16.77;8.52;;;;;;;7.46;39.65;100708.41;4995359;28;20510;-78
2023/03/16 07:49:12;;;;;;;16.30;7.80;;;;;;;7.45;39.34;100706.69;4995350;28;20038;-77
2023/03/16 07:51:39;;;;;;;15.73;7.68;;;;;;;7.32;39.49;100694.88;5011565;28;20042;-77
2023/03/16 07:54:06;;;;;;;20.20;8.13;;;;;;;7.38;39.55;100701.72;5011838;28;20046;-79
2023/03/16 07:56:35;;;;;;;15.55;7.72;;;;;;;7.27;39.03;100694.22;4978906;28;20047;-77
2023/03/16 07:59:01;;;;;;;13.95;8.40;;;;;;;7.21;39.54;100686.50;4995559;28;20069;-78
2023/03/16 08:01:28;;;;;;;24.67;8.50;;;;;;;6.84;40.09;100687.25;4979080;28;20049;-78
2023/03/16 08:03:55;;;;;;;14.77;7.90;;;;;;;6.79;40.73;100682.16;4995222;28;20118;-77
2023/03/16 08:06:20;;;;;;;18.45;8.38;;;;;;;6.84;40.70;100685.47;4995085;28;20426;-77
2023/03/16 08:08:47;;;;;;;17.52;8.45;;;;;;;6.78;40.63;100683.09;4995169;28;20046;-77
2023/03/16 08:11:26;;;;;;;21.60;8.43;;;;;;;7.12;40.62;100686.94;4995379;28;20078;-78
2023/03/16 08:13:58;;;;;;;;;;;;;;;7.36;39.75;100683.16;4963989;28;20038;-76
2023/03/16 08:16:36;;;;;;;36.58;9.18;;;;;;;7.72;39.39;100677.09;4995398;28;19917;-77
2023/03/16 08:19:04;;;;;;;25.20;8.27;;;;;;;7.75;38.81;100669.81;4994997;28;20097;-77
2023/03/16 08:21:30;;;;;;;20.08;9.43;;;;;;;7.88;39.40;100670.09;4996020;28;20058;-78
2023/03/16 08:23:55;;;;;;;25.08;9.73;;;;;;;8.09;39.28;100678.00;4994854;28;20077;-78
2023/03/16 08:26:22;;;;;;;24.02;10.18;;;;;;;8.15;38.34;100681.22;4994961;28;20046;-78
2023/03/16 08:28:53;;;;;;;25.90;10.77;;;;;;;7.71;38.79;100680.66;4979381;28;20100;-79
2023/03/16 08:31:20;;;;;;;34.97;11.80;;;;;;;8.06;39.42;100675.50;4978370;28;20461;-78
2023/03/16 08:33:56;;;;;;;25.08;10.30;;;;;;;8.46;38.92;100674.41;4964076;28;20073;-80
2023/03/16 08:36:26;;;;;;;20.92;10.48;;;;;;;8.74;38.80;100673.88;4994655;28;20046;-78
2023/03/16 08:38:54;;;;;;;20.85;9.48;;;;;;;9.13;37.99;100676.25;4994722;28;20046;-78
2023/03/16 08:41:20;;;;;;;25.20;9.40;;;;;;;9.41;37.63;100672.16;4978187;28;20447;-77
2023/03/16 08:43:48;;;;;;;26.50;7.82;;;;;;;9.67;36.82;64766.16;4994523;28;20556;-78
2023/03/16 08:46:14;;;;;;;22.35;9.48;;;;;;;9.77;36.72;64777.38;4994413;28;20042;-77
2023/03/16 08:48:47;;;;;;;23.27;8.85;;;;;;;9.98;37.12;64800.44;4994116;28;20541;-77
2023/03/16 08:51:14;;;;;;;25.83;8.98;;;;;;;10.25;36.21;64830.25;4978413;28;20129;-78
2023/03/16 08:53:39;;;;;;;23.98;9.07;;;;;;;10.36;35.80;64842.63;4994200;28;20581;-78
2023/03/16 08:56:08;;;;;;;18.63;8.15;;;;;;;10.13;35.43;64816.75;4994142;28;20049;-78
2023/03/16 08:58:35;;;;;;;17.38;9.15;;;;;;;9.86;35.41;64787.50;4995434;28;20050;-78
2023/03/16 09:01:04;;;;;;;12.65;7.65;;;;;;;9.75;36.17;64774.56;4977891;28;20486;-77
2023/03/16 09:03:34;;;;;;;21.98;8.30;;;;;;;9.07;36.49;64699.81;4995600;28;20126;-77
2023/03/16 09:06:01;;;;;;;;;;;;;;;8.62;37.28;64650.38;4996533;28;20046;-77
2023/03/16 09:08:27;;;;;;;23.05;8.48;;;;;;;8.46;38.24;64633.53;4977853;28;20345;-78
2023/03/16 09:11:11;;;;;;;20.90;8.68;;;;;;;8.82;37.97;64672.84;4995533;28;20074;-79
2023/03/16 09:13:37;;;;;;;21.33;8.27;;;;;;;8.54;38.22;64641.38;4995814;28;20123;-79
2023/03/16 09:16:04;;;;;;;16.23;8.13;;;;;;;9.04;38.11;64697.00;4995195;28;20050;-78
2023/03/16 09:18:31;;;;;;;20.35;7.22;;;;;;;9.44;37.22;64741.41;4994914;28;20046;-78
2023/03/16 09:20:59;;;;;;;16.77;7.82;;;;;;;9.82;37.17;64783.00;4993603;28;20046;-81
2023/03/16 09:23:26;;;;;;;19.30;8.30;;;;;;;9.88;36.87;64789.19;4994925;28;20053;-77
2023/03/16 09:25:53;;;;;;;20.67;8.85;;;;;;;9.91;36.60;64793.13;4994819;28;20066;-78
2023/03/16 09:28:19;;;;;;;21.08;8.88;;;;;;;9.96;36.91;64798.19;5009988;28;20046;-78
2023/03/16 09:30:48;;;;;;;22.80;8.07;;;;;;;10.31;36.27;64837.03;4993324;28;20050;-78
2023/03/16 09:33:14;;;;;;;22.77;8.10;;;;;;;10.48;36.08;64855.00;4994406;28;20054;-78
2023/03/16 09:35:40;;;;;;;15.20;7.60;;;;;;;10.31;36.49;64836.47;4992783;28;20054;-78
2023/03/16 09:38:06;;;;;;;15.70;9.00;;;;;;;10.42;36.49;64849.41;4994372;28;20110;-77
2023/03/16 09:40:32;;;;;;;21.92;8.50;;;;;;;10.10;36.25;64813.94;4992983;28;20042;-78
2023/03/16 09:43:32;;;;;;;23.45;8.73;;;;;;;9.89;36.75;64790.88;5009393;28;20069;-77
2023/03/16 09:46:13;;;;;;;16.73;7.60;;;;;;;9.57;36.57;64754.91;4976921;28;20070;-80
2023/03/16 09:48:40;;;;;;;14.15;8.15;;;;;;;9.09;37.79;64702.06;4963372;28;20066;-77
2023/03/16 09:51:15;;;;;;;22.10;7.95;;;;;;;8.84;38.27;64674.53;4954313;29;20046;-77
2023/03/16 09:53:41;;;;;;;13.45;7.53;;;;;;;8.78;38.50;64668.34;4954371;29;20078;-77
2023/03/16 09:56:19;;;;;;;15.00;6.35;;;;;;;9.31;37.97;64726.22;4954072;29;20491;-78
2023/03/16 09:58:45;;;;;;;10.38;5.95;;;;;;;9.28;37.60;64723.41;4955362;28;20047;-76
2023/03/16 10:01:43;;;;;;;11.93;5.80;;;;;;;9.13;36.97;64706.56;4971162;28;20046;-78
2023/03/16 10:04:34;;;;;;;8.85;5.82;;;;;;;8.98;37.44;64690.81;4969297;28;20049;-78
2023/03/16 10:07:12;;;;;;;9.35;5.63;;;;;;;9.59;36.85;64757.72;4973320;28;20054;-77
2023/03/16 10:10:23;;;;;;;8.77;4.97;;;;;;;9.95;35.88;64797.63;4973451;28;20130;-77
2023/03/16 10:12:52;;;;;;;8.65;4.63;;;;;;;10.05;35.83;64807.75;4951171;28;20055;-75
2023/03/16 10:15:26;;;;;;;10.35;4.40;;;;;;;9.57;35.60;64754.91;4956718;28;20050;-77
2023/03/16 10:18:12;;;;;;;6.55;3.60;;;;;;;8.84;38.44;64675.09;4956367;28;20046;-80
2023/03/16 10:20:40;;;;;;;6.40;3.10;;;;;;;8.99;36.25;64691.97;4957238;28;20081;-79
2023/03/16 10:23:19;;;;;;;8.32;3.25;;;;;;;9.16;35.86;64710.50;4973553;28;20062;-86
2023/03/16 10:25:49;;;;;;;7.47;2.97;;;;;;;9.30;35.33;64725.66;4973078;28;20055;-79
2023/03/16 10:28:18;;;;;;;43.33;4.05;;;;;;;9.68;34.97;64767.25;4940540;28;20417;-77
2023/03/16 10:30:46;;;;;;;;;;;;;;;10.10;35.15;64813.38;4956203;28;20038;-77
2023/03/16 10:33:23;;;;;;;3.20;2.33;;;;;;;10.44;33.28;64851.63;4952809;28;20484;-76
2023/03/16 10:36:09;;;;;;;3.85;2.20;;;;;;;10.97;31.94;64909.03;4953587;29;20074;-76
2023/03/16 10:38:47;;;;;;;6.38;2.20;;;;;;;11.38;31.16;64954.66;4971822;28;20138;-76
2023/03/16 10:41:19;;;;;;;18.95;2.67;;;;;;;11.01;30.04;64913.53;4956316;28;20039;-76
2023/03/16 10:43:50;;;;;;;6.95;2.42;;;;;;;10.40;30.09;64846.56;4943667;29;20487;-75
2023/03/16 10:46:16;;;;;;;1.90;1.70;;;;;;;10.45;30.44;64852.19;4956270;28;20043;-77
2023/03/16 10:48:52;;;;;;;3.38;2.10;;;;;;;10.57;29.73;64865.13;4971441;28;20496;-77
2023/03/16 10:51:24;;;;;;;3.40;1.80;;;;;;;11.10;29.65;64923.69;4956174;28;20074;-77
2023/03/16 10:53:51;;;;;;;3.13;2.20;;;;;;;11.73;29.92;64993.50;4973642;28;20042;-78
2023/03/16 10:56:24;;;;;;;6.03;1.95;;;;;;;12.07;28.15;65030.69;4956408;28;20070;-79
2023/03/16 10:58:51;;;;;;;3.78;1.98;;;;;;;12.43;27.35;65070.72;4946145;29;20039;-77
2023/03/16 11:01:27;;;;;;;2.90;1.92;;;;;;;12.60;27.42;65089.34;4964637;28;20039;-76
2023/03/16 11:03:55;;;;;;;2.60;1.65;;;;;;;12.89;27.48;65122.03;4973350;28;20073;-78
2023/03/16 11:06:30;;;;;;;4.18;2.00;;;;;;;12.93;27.83;65125.97;4973712;28;20065;-78
2023/03/16 11:09:07;;;;;;;12.07;3.20;;;;;;;12.94;28.27;65126.53;4972154;28;20035;-76
2023/03/16 11:11:34;;;;;;;3.53;2.10;;;;;;;12.96;27.93;65128.78;4956428;28;20045;-76
2023/03/16 11:14:03;;;;;;;2.60;2.25;;;;;;;13.10;27.73;65144.59;4956576;28;20129;-76
2023/03/16 11:16:38;;;;;;;4.05;2.38;;;;;;;13.32;27.85;65169.44;4971730;28;20422;-76
2023/03/16 11:19:20;;;;;;;7.00;2.50;;;;;;;13.45;28.27;65182.97;4956281;28;20057;-76
2023/03/16 11:21:55;;;;;;;8.82;2.10;;;;;;;13.35;29.33;65172.25;4972094;28;20059;-75
2023/03/16 11:24:41;;;;;;;4.38;2.38;;;;;;;13.35;28.17;65172.81;4955841;28;20043;-76
2023/03/16 11:27:25;;;;;;;5.35;1.80;;;;;;;13.15;27.83;65150.22;4952815;28;20048;-76
2023/03/16 11:30:05;;;;;;;4.22;2.00;;;;;;;13.35;27.43;65172.25;4970863;28;20494;-80
2023/03/16 11:32:39;;;;;;;3.92;2.20;;;;;;;13.65;27.32;65205.53;4955418;28;20046;-76
2023/03/16 11:35:12;;;;;;;4.47;2.53;;;;;;;14.06;27.00;65251.25;4972524;28;20102;-77
2023/03/16 11:37:45;;;;;;;2.53;1.85;;;;;;;14.33;25.27;65281.19;4956309;28;20068;-76
2023/03/16 11:40:37;;;;;;;2.60;2.13;;;;;;;14.50;24.31;65299.28;4972190;28;20394;-77